sensor_id;sensor_type;location;lat;lon;timestamp;temperature;humidity
52295;DHT22;38243;53.212;6.574;2022-11-03T00:02:02;18.90;82.80
52295;DHT22;38243;53.212;6.574;2022-11-03T00:04:28;18.90;82.70
52295;DHT22;38243;53.212;6.574;2022-11-03T00:42:21;18.80;83.00
52295;DHT22;38243;53.212;6.574;2022-11-03T00:44:50;18.80;82.90
52295;DHT22;38243;53.212;6.574;2022-11-03T00:47:18;18.90;83.00
52295;DHT22;38243;53.212;6.574;2022-11-03T00:49:43;18.90;83.00
52295;DHT22;38243;53.212;6.574;2022-11-03T00:52:09;18.80;82.90
52295;DHT22;38243;53.212;6.574;2022-11-03T00:54:35;18.80;83.10
52295;DHT22;38243;53.212;6.574;2022-11-03T00:57:00;18.80;83.00
52295;DHT22;38243;53.212;6.574;2022-11-03T00:59:26;18.80;83.00
52295;DHT22;38243;53.212;6.574;2022-11-03T01:01:51;18.80;83.00
52295;DHT22;38243;53.212;6.574;2022-11-03T01:04:17;18.80;82.90
52295;DHT22;38243;53.212;6.574;2022-11-03T01:07:01;18.80;82.90
52295;DHT22;38243;53.212;6.574;2022-11-03T01:14:37;18.80;83.00
52295;DHT22;38243;53.212;6.574;2022-11-03T01:17:04;18.80;83.00
52295;DHT22;38243;53.212;6.574;2022-11-03T01:19:30;18.80;82.90
52295;DHT22;38243;53.212;6.574;2022-11-03T01:21:55;18.80;82.90
52295;DHT22;38243;53.212;6.574;2022-11-03T01:24:21;18.80;82.90
52295;DHT22;38243;53.212;6.574;2022-11-03T01:26:47;18.80;82.80
52295;DHT22;38243;53.212;6.574;2022-11-03T01:29:12;18.80;82.80
52295;DHT22;38243;53.212;6.574;2022-11-03T01:31:38;18.70;82.70
52295;DHT22;38243;53.212;6.574;2022-11-03T01:34:04;18.70;82.70
52295;DHT22;38243;53.212;6.574;2022-11-03T01:36:29;18.70;82.70
52295;DHT22;38243;53.212;6.574;2022-11-03T01:38:55;18.80;82.80
52295;DHT22;38243;53.212;6.574;2022-11-03T01:41:25;18.70;82.80
52295;DHT22;38243;53.212;6.574;2022-11-03T01:46:29;18.70;82.70
52295;DHT22;38243;53.212;6.574;2022-11-03T01:49:38;18.70;82.70
52295;DHT22;38243;53.212;6.574;2022-11-03T01:51:44;18.10;82.40
52295;DHT22;38243;53.212;6.574;2022-11-03T01:54:12;18.70;82.80
52295;DHT22;38243;53.212;6.574;2022-11-03T01:56:40;18.70;82.90
52295;DHT22;38243;53.212;6.574;2022-11-03T01:59:07;18.70;83.50
52295;DHT22;38243;53.212;6.574;2022-11-03T02:01:33;18.70;82.80
52295;DHT22;38243;53.212;6.574;2022-11-03T02:04:01;18.70;82.90
52295;DHT22;38243;53.212;6.574;2022-11-03T02:06:27;18.70;83.10
52295;DHT22;38243;53.212;6.574;2022-11-03T02:08:55;18.70;83.00
52295;DHT22;38243;53.212;6.574;2022-11-03T02:11:23;18.60;83.00
52295;DHT22;38243;53.212;6.574;2022-11-03T02:14:11;18.60;83.00
52295;DHT22;38243;53.212;6.574;2022-11-03T02:16:37;18.60;83.10
52295;DHT22;38243;53.212;6.574;2022-11-03T02:19:03;18.60;83.20
52295;DHT22;38243;53.212;6.574;2022-11-03T02:21:39;18.60;83.20
52295;DHT22;38243;53.212;6.574;2022-11-03T02:24:30;18.60;83.20
52295;DHT22;38243;53.212;6.574;2022-11-03T02:26:56;18.60;83.10
52295;DHT22;38243;53.212;6.574;2022-11-03T02:29:22;18.60;83.20
52295;DHT22;38243;53.212;6.574;2022-11-03T02:31:48;18.60;83.20
52295;DHT22;38243;53.212;6.574;2022-11-03T02:34:19;18.60;83.40
52295;DHT22;38243;53.212;6.574;2022-11-03T02:36:53;18.60;83.30
52295;DHT22;38243;53.212;6.574;2022-11-03T02:39:37;18.60;83.30
52295;DHT22;38243;53.212;6.574;2022-11-03T02:42:05;18.60;83.40
52295;DHT22;38243;53.212;6.574;2022-11-03T02:44:32;18.60;83.40
52295;DHT22;38243;53.212;6.574;2022-11-03T02:46:59;19.30;83.70
52295;DHT22;38243;53.212;6.574;2022-11-03T02:49:25;18.60;83.40
52295;DHT22;38243;53.212;6.574;2022-11-03T02:51:58;18.60;83.40
52295;DHT22;38243;53.212;6.574;2022-11-03T02:54:28;18.60;83.40
52295;DHT22;38243;53.212;6.574;2022-11-03T02:56:56;18.60;83.30
52295;DHT22;38243;53.212;6.574;2022-11-03T02:59:27;18.60;83.40
52295;DHT22;38243;53.212;6.574;2022-11-03T03:02:37;18.60;83.50
52295;DHT22;38243;53.212;6.574;2022-11-03T03:04:51;18.50;83.50
52295;DHT22;38243;53.212;6.574;2022-11-03T03:07:21;18.50;83.60
52295;DHT22;38243;53.212;6.574;2022-11-03T03:09:57;18.60;83.60
52295;DHT22;38243;53.212;6.574;2022-11-03T03:12:25;18.60;83.70
52295;DHT22;38243;53.212;6.574;2022-11-03T03:14:51;18.50;83.50
52295;DHT22;38243;53.212;6.574;2022-11-03T03:17:19;18.60;83.70
52295;DHT22;38243;53.212;6.574;2022-11-03T03:27:28;18.50;83.70
52295;DHT22;38243;53.212;6.574;2022-11-03T03:29:56;18.50;83.70
52295;DHT22;38243;53.212;6.574;2022-11-03T03:32:24;18.50;83.70
52295;DHT22;38243;53.212;6.574;2022-11-03T03:34:50;18.60;83.80
52295;DHT22;38243;53.212;6.574;2022-11-03T03:37:16;18.50;83.80
52295;DHT22;38243;53.212;6.574;2022-11-03T03:39:47;18.50;83.90
52295;DHT22;38243;53.212;6.574;2022-11-03T03:42:14;18.50;83.90
52295;DHT22;38243;53.212;6.574;2022-11-03T03:44:40;18.50;84.00
52295;DHT22;38243;53.212;6.574;2022-11-03T03:47:09;18.50;84.10
52295;DHT22;38243;53.212;6.574;2022-11-03T03:49:37;18.50;84.20
52295;DHT22;38243;53.212;6.574;2022-11-03T03:52:03;18.50;84.30
52295;DHT22;38243;53.212;6.574;2022-11-03T03:54:29;18.50;84.20
52295;DHT22;38243;53.212;6.574;2022-11-03T03:57:02;17.90;84.00
52295;DHT22;38243;53.212;6.574;2022-11-03T03:59:28;18.50;84.40
52295;DHT22;38243;53.212;6.574;2022-11-03T04:01:54;18.50;85.10
52295;DHT22;38243;53.212;6.574;2022-11-03T04:04:19;18.40;84.40
52295;DHT22;38243;53.212;6.574;2022-11-03T04:06:45;18.50;84.40
52295;DHT22;38243;53.212;6.574;2022-11-03T04:09:10;18.40;84.40
52295;DHT22;38243;53.212;6.574;2022-11-03T04:11:36;18.40;84.50
52295;DHT22;38243;53.212;6.574;2022-11-03T04:14:20;18.40;84.60
52295;DHT22;38243;53.212;6.574;2022-11-03T04:17:06;18.50;84.70
52295;DHT22;38243;53.212;6.574;2022-11-03T04:19:57;18.40;84.70
52295;DHT22;38243;53.212;6.574;2022-11-03T04:22:41;18.40;84.70
52295;DHT22;38243;53.212;6.574;2022-11-03T04:25:07;18.40;84.90
52295;DHT22;38243;53.212;6.574;2022-11-03T04:27:33;18.40;84.90
52295;DHT22;38243;53.212;6.574;2022-11-03T04:30:13;18.40;84.90
52295;DHT22;38243;53.212;6.574;2022-11-03T04:32:42;18.40;84.90
52295;DHT22;38243;53.212;6.574;2022-11-03T04:38:04;18.40;84.90
52295;DHT22;38243;53.212;6.574;2022-11-03T04:40:33;18.40;85.00
52295;DHT22;38243;53.212;6.574;2022-11-03T04:42:59;18.40;84.80
52295;DHT22;38243;53.212;6.574;2022-11-03T04:45:27;18.40;84.90
52295;DHT22;38243;53.212;6.574;2022-11-03T04:47:53;18.40;85.00
52295;DHT22;38243;53.212;6.574;2022-11-03T04:50:21;18.40;85.00
52295;DHT22;38243;53.212;6.574;2022-11-03T04:52:47;18.40;85.10
52295;DHT22;38243;53.212;6.574;2022-11-03T04:55:14;18.40;85.10
52295;DHT22;38243;53.212;6.574;2022-11-03T04:57:40;18.40;85.10
52295;DHT22;38243;53.212;6.574;2022-11-03T05:00:05;18.40;85.20
52295;DHT22;38243;53.212;6.574;2022-11-03T05:02:31;18.40;85.20
52295;DHT22;38243;53.212;6.574;2022-11-03T05:04:57;18.40;85.20
52295;DHT22;38243;53.212;6.574;2022-11-03T05:07:33;18.40;85.30
52295;DHT22;38243;53.212;6.574;2022-11-03T05:10:00;18.40;85.30
52295;DHT22;38243;53.212;6.574;2022-11-03T05:12:25;18.40;85.30
52295;DHT22;38243;53.212;6.574;2022-11-03T05:14:51;18.30;85.30
52295;DHT22;38243;53.212;6.574;2022-11-03T05:19:45;18.30;85.40
52295;DHT22;38243;53.212;6.574;2022-11-03T05:22:17;18.30;85.60
52295;DHT22;38243;53.212;6.574;2022-11-03T05:24:44;18.30;85.50
52295;DHT22;38243;53.212;6.574;2022-11-03T05:27:28;18.30;85.70
52295;DHT22;38243;53.212;6.574;2022-11-03T05:29:55;18.30;85.60
52295;DHT22;38243;53.212;6.574;2022-11-03T05:32:23;18.30;85.70
52295;DHT22;38243;53.212;6.574;2022-11-03T05:34:50;18.30;85.70
52295;DHT22;38243;53.212;6.574;2022-11-03T05:37:27;18.30;85.70
52295;DHT22;38243;53.212;6.574;2022-11-03T05:39:54;18.30;85.80
52295;DHT22;38243;53.212;6.574;2022-11-03T05:44:46;18.30;86.00
52295;DHT22;38243;53.212;6.574;2022-11-03T05:49:47;18.20;86.00
52295;DHT22;38243;53.212;6.574;2022-11-03T05:52:18;18.30;86.10
52295;DHT22;38243;53.212;6.574;2022-11-03T05:54:45;18.30;86.20
52295;DHT22;38243;53.212;6.574;2022-11-03T05:57:14;18.30;86.30
52295;DHT22;38243;53.212;6.574;2022-11-03T05:59:40;18.20;86.20
52295;DHT22;38243;53.212;6.574;2022-11-03T06:02:15;18.20;86.40
52295;DHT22;38243;53.212;6.574;2022-11-03T06:04:44;18.20;86.40
52295;DHT22;38243;53.212;6.574;2022-11-03T06:09:38;18.20;86.50
52295;DHT22;38243;53.212;6.574;2022-11-03T06:12:04;18.20;86.50
52295;DHT22;38243;53.212;6.574;2022-11-03T06:14:31;18.20;86.60
52295;DHT22;38243;53.212;6.574;2022-11-03T06:19:27;18.20;86.90
52295;DHT22;38243;53.212;6.574;2022-11-03T06:22:35;18.20;87.00
52295;DHT22;38243;53.212;6.574;2022-11-03T06:24:42;18.20;87.20
52295;DHT22;38243;53.212;6.574;2022-11-03T06:27:10;18.20;87.80
52295;DHT22;38243;53.212;6.574;2022-11-03T06:29:37;18.20;88.30
52295;DHT22;38243;53.212;6.574;2022-11-03T06:32:03;18.20;88.60
52295;DHT22;38243;53.212;6.574;2022-11-03T06:34:33;18.20;88.80
52295;DHT22;38243;53.212;6.574;2022-11-03T06:37:07;18.20;89.20
52295;DHT22;38243;53.212;6.574;2022-11-03T06:39:34;18.30;90.00
52295;DHT22;38243;53.212;6.574;2022-11-03T06:42:08;18.30;90.50
52295;DHT22;38243;53.212;6.574;2022-11-03T06:44:35;18.30;90.50
52295;DHT22;38243;53.212;6.574;2022-11-03T06:47:07;18.20;90.40
52295;DHT22;38243;53.212;6.574;2022-11-03T06:49:35;18.20;90.30
52295;DHT22;38243;53.212;6.574;2022-11-03T06:52:04;18.20;90.20
52295;DHT22;38243;53.212;6.574;2022-11-03T06:54:30;18.30;90.10
52295;DHT22;38243;53.212;6.574;2022-11-03T06:56:56;18.20;90.00
52295;DHT22;38243;53.212;6.574;2022-11-03T06:59:21;18.30;89.90
52295;DHT22;38243;53.212;6.574;2022-11-03T07:01:47;18.20;90.00
52295;DHT22;38243;53.212;6.574;2022-11-03T07:04:22;18.30;89.90
52295;DHT22;38243;53.212;6.574;2022-11-03T07:06:54;18.20;89.70
52295;DHT22;38243;53.212;6.574;2022-11-03T07:09:23;18.20;89.60
52295;DHT22;38243;53.212;6.574;2022-11-03T07:11:57;18.20;89.30
52295;DHT22;38243;53.212;6.574;2022-11-03T07:14:26;18.20;89.40
52295;DHT22;38243;53.212;6.574;2022-11-03T07:16:53;18.30;89.60
52295;DHT22;38243;53.212;6.574;2022-11-03T07:19:24;18.20;89.50
52295;DHT22;38243;53.212;6.574;2022-11-03T07:21:51;18.30;89.60
52295;DHT22;38243;53.212;6.574;2022-11-03T07:24:18;18.20;89.50
52295;DHT22;38243;53.212;6.574;2022-11-03T07:26:45;18.20;89.50
52295;DHT22;38243;53.212;6.574;2022-11-03T07:29:12;18.20;89.50
52295;DHT22;38243;53.212;6.574;2022-11-03T07:31:40;18.30;89.40
52295;DHT22;38243;53.212;6.574;2022-11-03T07:34:08;18.20;89.30
52295;DHT22;38243;53.212;6.574;2022-11-03T07:36:35;18.20;89.20
52295;DHT22;38243;53.212;6.574;2022-11-03T07:39:00;18.20;89.30
52295;DHT22;38243;53.212;6.574;2022-11-03T07:41:27;18.20;89.90
52295;DHT22;38243;53.212;6.574;2022-11-03T07:43:56;18.20;89.20
52295;DHT22;38243;53.212;6.574;2022-11-03T07:46:22;18.20;89.30
52295;DHT22;38243;53.212;6.574;2022-11-03T07:48:49;18.20;89.10
52295;DHT22;38243;53.212;6.574;2022-11-03T07:54:02;18.30;89.30
52295;DHT22;38243;53.212;6.574;2022-11-03T07:56:31;18.30;89.30
52295;DHT22;38243;53.212;6.574;2022-11-03T07:58:58;18.30;89.20
52295;DHT22;38243;53.212;6.574;2022-11-03T08:01:32;18.20;89.20
52295;DHT22;38243;53.212;6.574;2022-11-03T08:04:00;18.30;89.30
52295;DHT22;38243;53.212;6.574;2022-11-03T08:06:26;18.30;89.60
52295;DHT22;38243;53.212;6.574;2022-11-03T08:08:51;18.30;90.00
52295;DHT22;38243;53.212;6.574;2022-11-03T08:11:17;18.30;90.20
52295;DHT22;38243;53.212;6.574;2022-11-03T08:13:43;17.70;90.50
52295;DHT22;38243;53.212;6.574;2022-11-03T08:16:08;18.30;90.90
52295;DHT22;38243;53.212;6.574;2022-11-03T08:18:34;18.30;91.00
52295;DHT22;38243;53.212;6.574;2022-11-03T08:21:01;18.30;91.10
52295;DHT22;38243;53.212;6.574;2022-11-03T08:23:26;18.40;91.10
52295;DHT22;38243;53.212;6.574;2022-11-03T08:25:52;18.40;91.00
52295;DHT22;38243;53.212;6.574;2022-11-03T08:28:17;18.40;90.70
52295;DHT22;38243;53.212;6.574;2022-11-03T08:30:43;18.30;90.60
52295;DHT22;38243;53.212;6.574;2022-11-03T08:33:09;18.40;90.50
52295;DHT22;38243;53.212;6.574;2022-11-03T08:35:34;18.40;90.30
52295;DHT22;38243;53.212;6.574;2022-11-03T08:38:00;18.40;90.30
52295;DHT22;38243;53.212;6.574;2022-11-03T08:40:25;18.40;90.20
52295;DHT22;38243;53.212;6.574;2022-11-03T08:42:51;18.40;90.30
52295;DHT22;38243;53.212;6.574;2022-11-03T08:45:16;18.30;90.30
52295;DHT22;38243;53.212;6.574;2022-11-03T08:47:42;18.40;90.30
52295;DHT22;38243;53.212;6.574;2022-11-03T08:50:08;18.40;90.30
52295;DHT22;38243;53.212;6.574;2022-11-03T08:52:33;18.40;90.30
52295;DHT22;38243;53.212;6.574;2022-11-03T08:54:59;18.40;90.20
52295;DHT22;38243;53.212;6.574;2022-11-03T08:57:24;18.40;90.20
52295;DHT22;38243;53.212;6.574;2022-11-03T08:59:50;18.40;90.10
52295;DHT22;38243;53.212;6.574;2022-11-03T09:02:17;18.40;90.10
52295;DHT22;38243;53.212;6.574;2022-11-03T09:04:43;18.40;90.10
52295;DHT22;38243;53.212;6.574;2022-11-03T09:07:09;18.40;90.10
52295;DHT22;38243;53.212;6.574;2022-11-03T09:09:34;18.40;90.10
52295;DHT22;38243;53.212;6.574;2022-11-03T09:12:00;18.40;90.10
52295;DHT22;38243;53.212;6.574;2022-11-03T09:14:25;18.40;90.10
52295;DHT22;38243;53.212;6.574;2022-11-03T09:16:51;18.40;90.10
52295;DHT22;38243;53.212;6.574;2022-11-03T09:19:16;18.40;90.10
52295;DHT22;38243;53.212;6.574;2022-11-03T09:21:42;18.40;90.10
52295;DHT22;38243;53.212;6.574;2022-11-03T09:24:08;18.40;90.10
52295;DHT22;38243;53.212;6.574;2022-11-03T09:26:33;18.40;90.10
52295;DHT22;38243;53.212;6.574;2022-11-03T09:28:59;18.40;90.20
52295;DHT22;38243;53.212;6.574;2022-11-03T09:31:24;18.40;90.20
52295;DHT22;38243;53.212;6.574;2022-11-03T09:33:52;18.40;90.20
52295;DHT22;38243;53.212;6.574;2022-11-03T09:36:18;18.40;90.20
52295;DHT22;38243;53.212;6.574;2022-11-03T09:38:44;18.40;90.20
52295;DHT22;38243;53.212;6.574;2022-11-03T09:41:09;18.40;90.20
52295;DHT22;38243;53.212;6.574;2022-11-03T09:43:42;18.40;90.20
52295;DHT22;38243;53.212;6.574;2022-11-03T09:46:08;18.40;90.20
52295;DHT22;38243;53.212;6.574;2022-11-03T09:48:34;18.40;90.30
52295;DHT22;38243;53.212;6.574;2022-11-03T09:50:59;18.40;90.30
52295;DHT22;38243;53.212;6.574;2022-11-03T09:53:25;18.40;90.30
52295;DHT22;38243;53.212;6.574;2022-11-03T09:55:51;18.40;90.30
52295;DHT22;38243;53.212;6.574;2022-11-03T09:58:16;18.40;90.30
52295;DHT22;38243;53.212;6.574;2022-11-03T10:00:42;18.40;90.30
52295;DHT22;38243;53.212;6.574;2022-11-03T10:03:11;18.50;90.30
52295;DHT22;38243;53.212;6.574;2022-11-03T10:05:38;18.50;90.30
52295;DHT22;38243;53.212;6.574;2022-11-03T10:08:10;18.50;90.40
52295;DHT22;38243;53.212;6.574;2022-11-03T10:10:36;18.50;90.40
52295;DHT22;38243;53.212;6.574;2022-11-03T10:13:02;18.50;90.40
52295;DHT22;38243;53.212;6.574;2022-11-03T10:15:33;18.50;90.70
52295;DHT22;38243;53.212;6.574;2022-11-03T10:17:59;18.50;90.40
52295;DHT22;38243;53.212;6.574;2022-11-03T10:20:27;18.50;90.40
52295;DHT22;38243;53.212;6.574;2022-11-03T10:22:53;18.50;90.40
52295;DHT22;38243;53.212;6.574;2022-11-03T10:27:50;18.50;90.40
52295;DHT22;38243;53.212;6.574;2022-11-03T10:30:16;18.50;90.40
52295;DHT22;38243;53.212;6.574;2022-11-03T10:32:42;18.50;90.50
52295;DHT22;38243;53.212;6.574;2022-11-03T10:35:30;18.50;90.50
52295;DHT22;38243;53.212;6.574;2022-11-03T10:37:55;18.50;90.50
52295;DHT22;38243;53.212;6.574;2022-11-03T10:40:33;18.50;90.50
52295;DHT22;38243;53.212;6.574;2022-11-03T10:42:59;18.50;90.50
52295;DHT22;38243;53.212;6.574;2022-11-03T10:45:25;18.50;90.50
52295;DHT22;38243;53.212;6.574;2022-11-03T10:47:58;18.50;90.50
52295;DHT22;38243;53.212;6.574;2022-11-03T10:50:24;18.50;90.50
52295;DHT22;38243;53.212;6.574;2022-11-03T10:52:50;18.50;90.50
52295;DHT22;38243;53.212;6.574;2022-11-03T10:55:17;18.50;90.50
52295;DHT22;38243;53.212;6.574;2022-11-03T10:57:43;18.50;90.50
52295;DHT22;38243;53.212;6.574;2022-11-03T11:00:12;18.60;90.60
52295;DHT22;38243;53.212;6.574;2022-11-03T11:02:39;18.50;90.50
52295;DHT22;38243;53.212;6.574;2022-11-03T11:07:38;18.60;90.60
52295;DHT22;38243;53.212;6.574;2022-11-03T11:12:36;18.60;90.60
52295;DHT22;38243;53.212;6.574;2022-11-03T11:15:02;18.60;90.60
52295;DHT22;38243;53.212;6.574;2022-11-03T11:17:45;18.60;90.60
52295;DHT22;38243;53.212;6.574;2022-11-03T11:22:42;18.60;90.60
52295;DHT22;38243;53.212;6.574;2022-11-03T11:25:08;18.60;90.60
52295;DHT22;38243;53.212;6.574;2022-11-03T11:30:07;18.70;90.60
52295;DHT22;38243;53.212;6.574;2022-11-03T11:32:58;18.70;90.60
52295;DHT22;38243;53.212;6.574;2022-11-03T11:37:50;18.70;90.60
52295;DHT22;38243;53.212;6.574;2022-11-03T11:48:19;18.70;90.50
52295;DHT22;38243;53.212;6.574;2022-11-03T11:50:44;18.70;90.50
52295;DHT22;38243;53.212;6.574;2022-11-03T11:53:11;18.70;90.50
52295;DHT22;38243;53.212;6.574;2022-11-03T11:58:03;18.70;90.50
52295;DHT22;38243;53.212;6.574;2022-11-03T12:00:31;18.70;90.50
52295;DHT22;38243;53.212;6.574;2022-11-03T12:02:57;18.70;90.40
52295;DHT22;38243;53.212;6.574;2022-11-03T12:05:28;18.70;90.40
52295;DHT22;38243;53.212;6.574;2022-11-03T12:07:54;18.70;90.40
52295;DHT22;38243;53.212;6.574;2022-11-03T12:10:21;18.70;90.30
52295;DHT22;38243;53.212;6.574;2022-11-03T12:12:47;18.70;90.30
52295;DHT22;38243;53.212;6.574;2022-11-03T12:17:57;18.70;90.30
52295;DHT22;38243;53.212;6.574;2022-11-03T12:20:33;18.70;90.30
52295;DHT22;38243;53.212;6.574;2022-11-03T12:22:58;18.70;90.30
52295;DHT22;38243;53.212;6.574;2022-11-03T12:25:36;18.60;90.30
52295;DHT22;38243;53.212;6.574;2022-11-03T12:28:02;18.70;90.60
52295;DHT22;38243;53.212;6.574;2022-11-03T12:30:27;18.70;90.30
52295;DHT22;38243;53.212;6.574;2022-11-03T12:32:53;18.70;90.30
52295;DHT22;38243;53.212;6.574;2022-11-03T12:35:19;18.70;90.30
52295;DHT22;38243;53.212;6.574;2022-11-03T12:37:44;18.60;90.30
52295;DHT22;38243;53.212;6.574;2022-11-03T12:40:11;18.70;90.30
52295;DHT22;38243;53.212;6.574;2022-11-03T12:42:37;18.70;90.30
52295;DHT22;38243;53.212;6.574;2022-11-03T12:45:02;18.70;90.30
52295;DHT22;38243;53.212;6.574;2022-11-03T12:47:29;18.70;90.20
52295;DHT22;38243;53.212;6.574;2022-11-03T12:49:54;18.70;90.30
52295;DHT22;38243;53.212;6.574;2022-11-03T12:52:20;18.70;90.30
52295;DHT22;38243;53.212;6.574;2022-11-03T12:54:45;18.70;90.20
52295;DHT22;38243;53.212;6.574;2022-11-03T12:57:11;18.70;90.30
52295;DHT22;38243;53.212;6.574;2022-11-03T12:59:37;18.70;90.30
52295;DHT22;38243;53.212;6.574;2022-11-03T13:02:03;18.70;90.20
52295;DHT22;38243;53.212;6.574;2022-11-03T13:04:29;18.70;90.30
52295;DHT22;38243;53.212;6.574;2022-11-03T13:06:54;18.70;90.40
52295;DHT22;38243;53.212;6.574;2022-11-03T13:09:20;18.70;90.40
52295;DHT22;38243;53.212;6.574;2022-11-03T13:11:45;18.60;90.40
52295;DHT22;38243;53.212;6.574;2022-11-03T13:14:29;18.70;90.50
52295;DHT22;38243;53.212;6.574;2022-11-03T13:16:55;18.70;90.50
52295;DHT22;38243;53.212;6.574;2022-11-03T13:19:21;18.70;90.50
52295;DHT22;38243;53.212;6.574;2022-11-03T13:21:47;18.70;90.40
52295;DHT22;38243;53.212;6.574;2022-11-03T13:24:13;18.70;90.40
52295;DHT22;38243;53.212;6.574;2022-11-03T13:26:38;18.70;90.40
52295;DHT22;38243;53.212;6.574;2022-11-03T13:29:04;18.70;90.30
52295;DHT22;38243;53.212;6.574;2022-11-03T13:31:29;18.70;90.30
52295;DHT22;38243;53.212;6.574;2022-11-03T13:33:58;18.70;90.30
52295;DHT22;38243;53.212;6.574;2022-11-03T13:36:25;18.70;90.30
52295;DHT22;38243;53.212;6.574;2022-11-03T13:38:50;18.70;90.30
52295;DHT22;38243;53.212;6.574;2022-11-03T13:41:17;18.70;90.30
52295;DHT22;38243;53.212;6.574;2022-11-03T13:43:42;18.70;90.20
52295;DHT22;38243;53.212;6.574;2022-11-03T13:46:09;18.70;90.10
52295;DHT22;38243;53.212;6.574;2022-11-03T13:48:37;18.70;90.20
52295;DHT22;38243;53.212;6.574;2022-11-03T13:51:02;18.70;90.20
52295;DHT22;38243;53.212;6.574;2022-11-03T13:53:28;18.70;90.20
52295;DHT22;38243;53.212;6.574;2022-11-03T13:55:53;18.70;90.20
52295;DHT22;38243;53.212;6.574;2022-11-03T13:58:19;18.70;90.20
52295;DHT22;38243;53.212;6.574;2022-11-03T14:00:46;18.70;90.10
52295;DHT22;38243;53.212;6.574;2022-11-03T14:03:11;18.70;90.20
52295;DHT22;38243;53.212;6.574;2022-11-03T14:05:37;18.70;90.20
52295;DHT22;38243;53.212;6.574;2022-11-03T14:08:03;18.70;90.10
52295;DHT22;38243;53.212;6.574;2022-11-03T14:10:29;18.70;90.20
52295;DHT22;38243;53.212;6.574;2022-11-03T14:12:55;18.70;90.10
52295;DHT22;38243;53.212;6.574;2022-11-03T14:15:20;18.70;90.20
52295;DHT22;38243;53.212;6.574;2022-11-03T14:17:46;18.70;90.10
52295;DHT22;38243;53.212;6.574;2022-11-03T14:20:12;18.70;90.10
52295;DHT22;38243;53.212;6.574;2022-11-03T14:22:38;18.70;90.10
52295;DHT22;38243;53.212;6.574;2022-11-03T14:25:03;18.70;90.20
52295;DHT22;38243;53.212;6.574;2022-11-03T14:27:29;18.70;90.20
52295;DHT22;38243;53.212;6.574;2022-11-03T14:29:55;18.60;90.20
52295;DHT22;38243;53.212;6.574;2022-11-03T14:32:20;18.70;90.20
52295;DHT22;38243;53.212;6.574;2022-11-03T14:34:46;18.70;90.20
52295;DHT22;38243;53.212;6.574;2022-11-03T14:37:12;18.60;90.20
52295;DHT22;38243;53.212;6.574;2022-11-03T14:39:38;18.60;90.20
52295;DHT22;38243;53.212;6.574;2022-11-03T14:42:04;18.70;90.20
52295;DHT22;38243;53.212;6.574;2022-11-03T14:44:37;18.70;90.20
52295;DHT22;38243;53.212;6.574;2022-11-03T14:47:03;18.70;90.20
52295;DHT22;38243;53.212;6.574;2022-11-03T14:49:30;18.60;90.20
52295;DHT22;38243;53.212;6.574;2022-11-03T14:51:56;18.60;90.20
52295;DHT22;38243;53.212;6.574;2022-11-03T14:54:24;18.70;90.20
52295;DHT22;38243;53.212;6.574;2022-11-03T14:56:50;18.60;90.20
52295;DHT22;38243;53.212;6.574;2022-11-03T14:59:16;18.60;90.20
52295;DHT22;38243;53.212;6.574;2022-11-03T15:01:42;18.60;90.20
52295;DHT22;38243;53.212;6.574;2022-11-03T15:04:07;18.60;90.20
52295;DHT22;38243;53.212;6.574;2022-11-03T15:06:33;18.60;90.30
52295;DHT22;38243;53.212;6.574;2022-11-03T15:08:59;18.60;90.20
52295;DHT22;38243;53.212;6.574;2022-11-03T15:11:24;18.60;90.30
52295;DHT22;38243;53.212;6.574;2022-11-03T15:13:50;18.60;90.30
52295;DHT22;38243;53.212;6.574;2022-11-03T15:16:16;18.70;90.40
52295;DHT22;38243;53.212;6.574;2022-11-03T15:18:41;18.70;90.40
52295;DHT22;38243;53.212;6.574;2022-11-03T15:21:09;18.60;90.40
52295;DHT22;38243;53.212;6.574;2022-11-03T15:23:35;18.70;90.50
52295;DHT22;38243;53.212;6.574;2022-11-03T15:26:01;18.70;90.50
52295;DHT22;38243;53.212;6.574;2022-11-03T15:28:26;18.70;90.50
52295;DHT22;38243;53.212;6.574;2022-11-03T15:30:52;18.70;90.50
52295;DHT22;38243;53.212;6.574;2022-11-03T15:33:17;18.70;90.50
52295;DHT22;38243;53.212;6.574;2022-11-03T15:35:43;18.70;90.60
52295;DHT22;38243;53.212;6.574;2022-11-03T15:38:09;18.70;90.60
52295;DHT22;38243;53.212;6.574;2022-11-03T15:40:34;18.70;90.60
52295;DHT22;38243;53.212;6.574;2022-11-03T15:43:00;18.70;90.60
52295;DHT22;38243;53.212;6.574;2022-11-03T15:45:26;18.70;90.60
52295;DHT22;38243;53.212;6.574;2022-11-03T15:47:51;18.70;90.60
52295;DHT22;38243;53.212;6.574;2022-11-03T15:50:17;18.70;90.70
52295;DHT22;38243;53.212;6.574;2022-11-03T15:52:43;18.70;90.70
52295;DHT22;38243;53.212;6.574;2022-11-03T15:55:08;18.70;90.70
52295;DHT22;38243;53.212;6.574;2022-11-03T15:57:35;18.70;90.70
52295;DHT22;38243;53.212;6.574;2022-11-03T16:00:01;18.70;90.70
52295;DHT22;38243;53.212;6.574;2022-11-03T16:02:26;18.70;90.70
52295;DHT22;38243;53.212;6.574;2022-11-03T16:04:53;18.70;90.80
52295;DHT22;38243;53.212;6.574;2022-11-03T16:07:19;18.70;90.80
52295;DHT22;38243;53.212;6.574;2022-11-03T16:09:44;18.70;90.80
52295;DHT22;38243;53.212;6.574;2022-11-03T16:12:11;18.70;90.80
52295;DHT22;38243;53.212;6.574;2022-11-03T16:14:37;18.70;90.80
52295;DHT22;38243;53.212;6.574;2022-11-03T16:17:03;18.70;90.90
52295;DHT22;38243;53.212;6.574;2022-11-03T16:19:29;18.70;90.90
52295;DHT22;38243;53.212;6.574;2022-11-03T16:21:55;18.70;90.90
52295;DHT22;38243;53.212;6.574;2022-11-03T16:24:20;18.70;91.00
52295;DHT22;38243;53.212;6.574;2022-11-03T16:26:46;18.70;91.00
52295;DHT22;38243;53.212;6.574;2022-11-03T16:29:12;18.70;91.00
52295;DHT22;38243;53.212;6.574;2022-11-03T16:31:37;18.70;91.10
52295;DHT22;38243;53.212;6.574;2022-11-03T16:34:03;18.70;91.10
52295;DHT22;38243;53.212;6.574;2022-11-03T16:36:29;18.70;91.20
52295;DHT22;38243;53.212;6.574;2022-11-03T16:38:55;18.70;91.30
52295;DHT22;38243;53.212;6.574;2022-11-03T16:41:20;18.70;91.40
52295;DHT22;38243;53.212;6.574;2022-11-03T16:43:46;18.70;91.40
52295;DHT22;38243;53.212;6.574;2022-11-03T16:46:13;18.70;91.40
52295;DHT22;38243;53.212;6.574;2022-11-03T16:48:38;18.70;91.40
52295;DHT22;38243;53.212;6.574;2022-11-03T16:51:04;18.70;91.50
52295;DHT22;38243;53.212;6.574;2022-11-03T16:53:29;18.70;91.50
52295;DHT22;38243;53.212;6.574;2022-11-03T16:55:55;18.70;91.50
52295;DHT22;38243;53.212;6.574;2022-11-03T16:58:21;18.70;91.50
52295;DHT22;38243;53.212;6.574;2022-11-03T17:00:46;18.70;91.60
52295;DHT22;38243;53.212;6.574;2022-11-03T17:03:12;18.70;91.60
52295;DHT22;38243;53.212;6.574;2022-11-03T17:05:37;18.70;91.60
52295;DHT22;38243;53.212;6.574;2022-11-03T17:08:03;18.70;91.60
52295;DHT22;38243;53.212;6.574;2022-11-03T17:10:29;18.70;91.70